sensor_id;sensor_type;location;lat;lon;timestamp;temperature;humidity
463;DHT22;218;51.902;9.542;2022-08-18T00:02:03;22.00;1.00
463;DHT22;218;51.902;9.542;2022-08-18T00:04:31;22.00;1.00
463;DHT22;218;51.902;9.542;2022-08-18T00:07:00;22.00;1.00
463;DHT22;218;51.902;9.542;2022-08-18T00:09:27;21.90;1.00
463;DHT22;218;51.902;9.542;2022-08-18T00:11:54;21.90;1.00
463;DHT22;218;51.902;9.542;2022-08-18T00:14:21;21.90;1.00
463;DHT22;218;51.902;9.542;2022-08-18T00:16:50;21.90;1.00
463;DHT22;218;51.902;9.542;2022-08-18T00:19:19;21.90;1.00
463;DHT22;218;51.902;9.542;2022-08-18T00:21:47;21.90;1.00
463;DHT22;218;51.902;9.542;2022-08-18T00:24:14;21.80;1.00
463;DHT22;218;51.902;9.542;2022-08-18T00:26:41;21.80;1.00
463;DHT22;218;51.902;9.542;2022-08-18T00:29:08;21.80;1.00
463;DHT22;218;51.902;9.542;2022-08-18T00:31:35;21.70;1.00
463;DHT22;218;51.902;9.542;2022-08-18T00:34:02;21.80;1.00
463;DHT22;218;51.902;9.542;2022-08-18T00:36:30;21.70;1.00
463;DHT22;218;51.902;9.542;2022-08-18T00:38:59;21.70;1.00
463;DHT22;218;51.902;9.542;2022-08-18T00:41:26;21.70;1.00
463;DHT22;218;51.902;9.542;2022-08-18T00:43:55;21.70;1.00
463;DHT22;218;51.902;9.542;2022-08-18T00:46:24;21.70;1.00
463;DHT22;218;51.902;9.542;2022-08-18T00:48:51;21.60;1.00
463;DHT22;218;51.902;9.542;2022-08-18T00:51:23;21.60;1.00
463;DHT22;218;51.902;9.542;2022-08-18T00:53:58;21.60;1.00
463;DHT22;218;51.902;9.542;2022-08-18T00:56:28;21.60;1.00
463;DHT22;218;51.902;9.542;2022-08-18T00:59:02;21.60;1.00
463;DHT22;218;51.902;9.542;2022-08-18T01:01:32;21.50;1.00
463;DHT22;218;51.902;9.542;2022-08-18T01:04:07;21.50;1.00
463;DHT22;218;51.902;9.542;2022-08-18T01:06:39;21.40;1.00
463;DHT22;218;51.902;9.542;2022-08-18T01:09:08;21.40;1.00
463;DHT22;218;51.902;9.542;2022-08-18T01:11:36;21.40;1.00
463;DHT22;218;51.902;9.542;2022-08-18T01:14:05;21.40;1.00
463;DHT22;218;51.902;9.542;2022-08-18T01:16:33;21.40;1.00
463;DHT22;218;51.902;9.542;2022-08-18T01:19:19;21.30;1.00
463;DHT22;218;51.902;9.542;2022-08-18T01:22:10;21.30;1.00
463;DHT22;218;51.902;9.542;2022-08-18T01:24:40;21.20;1.00
463;DHT22;218;51.902;9.542;2022-08-18T01:27:25;21.20;1.00
463;DHT22;218;51.902;9.542;2022-08-18T01:29:54;21.20;1.00
463;DHT22;218;51.902;9.542;2022-08-18T01:32:22;21.20;1.00
463;DHT22;218;51.902;9.542;2022-08-18T01:34:50;21.10;1.00
463;DHT22;218;51.902;9.542;2022-08-18T01:37:20;21.10;1.00
463;DHT22;218;51.902;9.542;2022-08-18T01:39:49;21.10;1.00
463;DHT22;218;51.902;9.542;2022-08-18T01:42:16;21.10;1.00
463;DHT22;218;51.902;9.542;2022-08-18T01:44:44;21.10;1.00
463;DHT22;218;51.902;9.542;2022-08-18T01:47:12;21.00;1.00
463;DHT22;218;51.902;9.542;2022-08-18T01:49:40;21.00;1.00
463;DHT22;218;51.902;9.542;2022-08-18T01:52:08;21.00;1.00
463;DHT22;218;51.902;9.542;2022-08-18T01:54:35;21.00;1.00
463;DHT22;218;51.902;9.542;2022-08-18T01:57:04;21.00;1.00
463;DHT22;218;51.902;9.542;2022-08-18T01:59:31;20.90;1.00
463;DHT22;218;51.902;9.542;2022-08-18T02:02:00;20.90;1.00
463;DHT22;218;51.902;9.542;2022-08-18T02:04:29;20.90;1.00
463;DHT22;218;51.902;9.542;2022-08-18T02:06:58;20.90;1.00
463;DHT22;218;51.902;9.542;2022-08-18T02:09:26;20.90;1.00
463;DHT22;218;51.902;9.542;2022-08-18T02:11:54;20.90;1.00
463;DHT22;218;51.902;9.542;2022-08-18T02:14:22;20.90;1.00
463;DHT22;218;51.902;9.542;2022-08-18T02:16:49;20.90;1.00
463;DHT22;218;51.902;9.542;2022-08-18T02:19:16;20.80;1.00
463;DHT22;218;51.902;9.542;2022-08-18T02:21:43;20.80;1.00
463;DHT22;218;51.902;9.542;2022-08-18T02:24:10;20.80;1.00
463;DHT22;218;51.902;9.542;2022-08-18T02:26:38;20.80;1.00
463;DHT22;218;51.902;9.542;2022-08-18T02:29:05;20.80;1.00
463;DHT22;218;51.902;9.542;2022-08-18T02:31:35;20.80;1.00
463;DHT22;218;51.902;9.542;2022-08-18T02:34:02;20.70;1.00
463;DHT22;218;51.902;9.542;2022-08-18T02:36:29;20.70;1.00
463;DHT22;218;51.902;9.542;2022-08-18T02:38:56;20.70;1.00
463;DHT22;218;51.902;9.542;2022-08-18T02:41:23;20.70;1.00
463;DHT22;218;51.902;9.542;2022-08-18T02:43:52;20.70;1.00
463;DHT22;218;51.902;9.542;2022-08-18T02:46:18;20.70;1.00
463;DHT22;218;51.902;9.542;2022-08-18T02:48:47;20.60;1.00
463;DHT22;218;51.902;9.542;2022-08-18T02:51:15;20.60;1.00
463;DHT22;218;51.902;9.542;2022-08-18T02:53:45;20.60;1.00
463;DHT22;218;51.902;9.542;2022-08-18T02:56:15;20.60;1.00
463;DHT22;218;51.902;9.542;2022-08-18T02:58:48;20.60;1.00
463;DHT22;218;51.902;9.542;2022-08-18T03:01:15;20.60;1.00
463;DHT22;218;51.902;9.542;2022-08-18T03:03:42;20.50;1.00
463;DHT22;218;51.902;9.542;2022-08-18T03:06:10;20.50;1.00
463;DHT22;218;51.902;9.542;2022-08-18T03:08:37;20.50;1.00
463;DHT22;218;51.902;9.542;2022-08-18T03:11:04;20.50;1.00
463;DHT22;218;51.902;9.542;2022-08-18T03:13:31;20.50;1.00
463;DHT22;218;51.902;9.542;2022-08-18T03:15:58;20.40;1.00
463;DHT22;218;51.902;9.542;2022-08-18T03:18:25;20.40;1.00
463;DHT22;218;51.902;9.542;2022-08-18T03:20:52;20.40;1.00
463;DHT22;218;51.902;9.542;2022-08-18T03:23:20;20.40;1.00
463;DHT22;218;51.902;9.542;2022-08-18T03:25:49;20.40;1.00
463;DHT22;218;51.902;9.542;2022-08-18T03:28:16;20.40;1.00
463;DHT22;218;51.902;9.542;2022-08-18T03:30:43;20.40;1.00
463;DHT22;218;51.902;9.542;2022-08-18T03:33:10;20.40;1.00
463;DHT22;218;51.902;9.542;2022-08-18T03:35:39;20.30;1.00
463;DHT22;218;51.902;9.542;2022-08-18T03:38:07;20.30;1.00
463;DHT22;218;51.902;9.542;2022-08-18T03:40:35;20.30;1.00
463;DHT22;218;51.902;9.542;2022-08-18T03:43:03;20.30;1.00
463;DHT22;218;51.902;9.542;2022-08-18T03:45:32;20.30;1.00
463;DHT22;218;51.902;9.542;2022-08-18T03:47:59;20.20;1.00
463;DHT22;218;51.902;9.542;2022-08-18T03:50:26;20.20;1.00
463;DHT22;218;51.902;9.542;2022-08-18T03:52:53;20.20;1.00
463;DHT22;218;51.902;9.542;2022-08-18T03:55:24;20.20;1.00
463;DHT22;218;51.902;9.542;2022-08-18T03:57:57;20.20;1.00
463;DHT22;218;51.902;9.542;2022-08-18T04:00:24;20.20;1.00
463;DHT22;218;51.902;9.542;2022-08-18T04:02:52;20.10;1.00
463;DHT22;218;51.902;9.542;2022-08-18T04:05:18;20.10;1.00
463;DHT22;218;51.902;9.542;2022-08-18T04:07:45;20.10;1.00
463;DHT22;218;51.902;9.542;2022-08-18T04:10:13;20.10;1.00
463;DHT22;218;51.902;9.542;2022-08-18T04:12:40;20.10;1.00
463;DHT22;218;51.902;9.542;2022-08-18T04:15:09;20.10;1.00
463;DHT22;218;51.902;9.542;2022-08-18T04:17:36;20.10;1.00
463;DHT22;218;51.902;9.542;2022-08-18T04:20:04;20.10;1.00
463;DHT22;218;51.902;9.542;2022-08-18T04:22:32;20.10;1.00
463;DHT22;218;51.902;9.542;2022-08-18T04:24:59;20.10;1.00
463;DHT22;218;51.902;9.542;2022-08-18T04:27:27;20.10;1.00
463;DHT22;218;51.902;9.542;2022-08-18T04:29:54;20.10;1.00
463;DHT22;218;51.902;9.542;2022-08-18T04:32:24;20.10;1.00
463;DHT22;218;51.902;9.542;2022-08-18T04:34:51;20.10;1.00
463;DHT22;218;51.902;9.542;2022-08-18T04:37:18;20.20;1.00
463;DHT22;218;51.902;9.542;2022-08-18T04:39:45;20.20;1.00
463;DHT22;218;51.902;9.542;2022-08-18T04:42:12;20.20;1.00
463;DHT22;218;51.902;9.542;2022-08-18T04:44:40;20.20;1.00
463;DHT22;218;51.902;9.542;2022-08-18T04:47:07;20.20;1.00
463;DHT22;218;51.902;9.542;2022-08-18T04:49:37;20.20;1.00
463;DHT22;218;51.902;9.542;2022-08-18T04:52:05;20.20;1.00
463;DHT22;218;51.902;9.542;2022-08-18T04:54:50;20.20;1.00
463;DHT22;218;51.902;9.542;2022-08-18T04:57:18;20.20;1.00
463;DHT22;218;51.902;9.542;2022-08-18T04:59:48;20.20;1.00
463;DHT22;218;51.902;9.542;2022-08-18T05:02:17;20.20;1.00
463;DHT22;218;51.902;9.542;2022-08-18T05:04:46;20.20;1.00
463;DHT22;218;51.902;9.542;2022-08-18T05:07:16;20.20;1.00
463;DHT22;218;51.902;9.542;2022-08-18T05:09:43;20.20;1.00
463;DHT22;218;51.902;9.542;2022-08-18T05:12:12;20.20;1.00
463;DHT22;218;51.902;9.542;2022-08-18T05:14:39;20.30;1.00
463;DHT22;218;51.902;9.542;2022-08-18T05:17:06;20.30;1.00
463;DHT22;218;51.902;9.542;2022-08-18T05:19:33;20.30;1.00
463;DHT22;218;51.902;9.542;2022-08-18T05:22:02;20.30;1.00
463;DHT22;218;51.902;9.542;2022-08-18T05:24:29;20.30;1.00
463;DHT22;218;51.902;9.542;2022-08-18T05:26:57;20.30;1.00
463;DHT22;218;51.902;9.542;2022-08-18T05:29:24;20.30;1.00
463;DHT22;218;51.902;9.542;2022-08-18T05:31:52;20.40;1.00
463;DHT22;218;51.902;9.542;2022-08-18T05:34:20;20.40;1.00
463;DHT22;218;51.902;9.542;2022-08-18T05:37:03;20.30;1.00
463;DHT22;218;51.902;9.542;2022-08-18T05:39:38;20.40;1.00
463;DHT22;218;51.902;9.542;2022-08-18T05:42:07;20.40;1.00
463;DHT22;218;51.902;9.542;2022-08-18T05:44:41;20.40;1.00
463;DHT22;218;51.902;9.542;2022-08-18T05:47:13;20.50;1.00
463;DHT22;218;51.902;9.542;2022-08-18T05:49:43;20.50;1.00
463;DHT22;218;51.902;9.542;2022-08-18T05:52:16;20.50;1.00
463;DHT22;218;51.902;9.542;2022-08-18T05:54:47;20.50;1.00
463;DHT22;218;51.902;9.542;2022-08-18T05:57:39;20.60;1.00
463;DHT22;218;51.902;9.542;2022-08-18T06:00:10;20.60;1.00
463;DHT22;218;51.902;9.542;2022-08-18T06:02:41;20.60;1.00
463;DHT22;218;51.902;9.542;2022-08-18T06:05:13;20.70;1.00
463;DHT22;218;51.902;9.542;2022-08-18T06:07:47;20.70;1.00
463;DHT22;218;51.902;9.542;2022-08-18T06:10:15;20.80;1.00
463;DHT22;218;51.902;9.542;2022-08-18T06:12:45;20.80;1.00
463;DHT22;218;51.902;9.542;2022-08-18T06:15:16;20.90;1.00
463;DHT22;218;51.902;9.542;2022-08-18T06:18:11;20.90;1.00
463;DHT22;218;51.902;9.542;2022-08-18T06:23:44;21.00;1.00
463;DHT22;218;51.902;9.542;2022-08-18T06:26:16;21.10;1.00
463;DHT22;218;51.902;9.542;2022-08-18T06:28:56;21.10;1.00
463;DHT22;218;51.902;9.542;2022-08-18T06:31:32;21.20;1.00
463;DHT22;218;51.902;9.542;2022-08-18T06:34:09;21.20;1.00
463;DHT22;218;51.902;9.542;2022-08-18T06:36:47;21.20;1.00
463;DHT22;218;51.902;9.542;2022-08-18T06:39:23;21.30;1.00
463;DHT22;218;51.902;9.542;2022-08-18T06:41:52;21.30;1.00
463;DHT22;218;51.902;9.542;2022-08-18T06:44:24;21.40;1.00
463;DHT22;218;51.902;9.542;2022-08-18T06:46:55;21.50;1.00
463;DHT22;218;51.902;9.542;2022-08-18T06:49:33;21.50;1.00
463;DHT22;218;51.902;9.542;2022-08-18T06:52:16;21.50;1.00
463;DHT22;218;51.902;9.542;2022-08-18T06:54:45;21.60;1.00
463;DHT22;218;51.902;9.542;2022-08-18T06:57:23;21.70;1.00
463;DHT22;218;51.902;9.542;2022-08-18T06:59:55;21.80;1.00
463;DHT22;218;51.902;9.542;2022-08-18T07:02:30;21.90;1.00
463;DHT22;218;51.902;9.542;2022-08-18T07:05:05;22.00;1.00
463;DHT22;218;51.902;9.542;2022-08-18T07:07:34;22.10;1.00
463;DHT22;218;51.902;9.542;2022-08-18T07:10:06;22.20;1.00
463;DHT22;218;51.902;9.542;2022-08-18T07:12:40;22.20;1.00
463;DHT22;218;51.902;9.542;2022-08-18T07:15:11;22.40;1.00
463;DHT22;218;51.902;9.542;2022-08-18T07:17:38;22.40;1.00
463;DHT22;218;51.902;9.542;2022-08-18T07:20:09;22.50;1.00
463;DHT22;218;51.902;9.542;2022-08-18T07:22:55;22.60;1.00
463;DHT22;218;51.902;9.542;2022-08-18T07:25:27;22.70;1.00
463;DHT22;218;51.902;9.542;2022-08-18T07:27:55;22.80;1.00
463;DHT22;218;51.902;9.542;2022-08-18T07:30:29;22.90;1.00
463;DHT22;218;51.902;9.542;2022-08-18T07:33:03;23.00;1.00
463;DHT22;218;51.902;9.542;2022-08-18T07:35:35;23.10;1.00
463;DHT22;218;51.902;9.542;2022-08-18T07:38:10;23.20;1.00
463;DHT22;218;51.902;9.542;2022-08-18T07:40:48;23.20;1.00
463;DHT22;218;51.902;9.542;2022-08-18T07:43:21;23.30;1.00
463;DHT22;218;51.902;9.542;2022-08-18T07:45:56;23.40;1.00
463;DHT22;218;51.902;9.542;2022-08-18T07:48:31;23.50;1.00
463;DHT22;218;51.902;9.542;2022-08-18T07:51:04;23.60;1.00
463;DHT22;218;51.902;9.542;2022-08-18T07:53:46;23.60;1.00
463;DHT22;218;51.902;9.542;2022-08-18T07:56:27;23.80;1.00
463;DHT22;218;51.902;9.542;2022-08-18T07:59:02;23.90;1.00
463;DHT22;218;51.902;9.542;2022-08-18T08:01:37;24.00;1.00
463;DHT22;218;51.902;9.542;2022-08-18T08:04:12;24.10;1.00
463;DHT22;218;51.902;9.542;2022-08-18T08:06:46;24.20;1.00
463;DHT22;218;51.902;9.542;2022-08-18T08:09:19;24.30;1.00
463;DHT22;218;51.902;9.542;2022-08-18T08:11:56;24.30;1.00
463;DHT22;218;51.902;9.542;2022-08-18T08:14:35;24.50;1.00
463;DHT22;218;51.902;9.542;2022-08-18T08:17:10;24.50;1.00
463;DHT22;218;51.902;9.542;2022-08-18T08:19:45;24.60;1.00
463;DHT22;218;51.902;9.542;2022-08-18T08:22:19;24.70;1.00
463;DHT22;218;51.902;9.542;2022-08-18T08:24:55;24.70;1.00
463;DHT22;218;51.902;9.542;2022-08-18T08:27:37;24.70;1.00
463;DHT22;218;51.902;9.542;2022-08-18T08:30:11;24.80;1.00
463;DHT22;218;51.902;9.542;2022-08-18T08:32:48;24.90;1.00
463;DHT22;218;51.902;9.542;2022-08-18T08:35:26;24.90;1.00
463;DHT22;218;51.902;9.542;2022-08-18T08:37:59;24.90;1.00
463;DHT22;218;51.902;9.542;2022-08-18T08:40:32;24.90;1.00
463;DHT22;218;51.902;9.542;2022-08-18T08:43:09;25.00;1.00
463;DHT22;218;51.902;9.542;2022-08-18T08:45:43;25.10;1.00
463;DHT22;218;51.902;9.542;2022-08-18T08:48:15;25.10;1.00
463;DHT22;218;51.902;9.542;2022-08-18T08:50:45;25.10;1.00
463;DHT22;218;51.902;9.542;2022-08-18T08:53:18;25.20;1.00
463;DHT22;218;51.902;9.542;2022-08-18T08:55:51;25.30;1.00
463;DHT22;218;51.902;9.542;2022-08-18T08:58:24;25.40;1.00
463;DHT22;218;51.902;9.542;2022-08-18T09:00:55;25.40;1.00
463;DHT22;218;51.902;9.542;2022-08-18T09:03:37;25.50;1.00
463;DHT22;218;51.902;9.542;2022-08-18T09:06:15;25.60;1.00
463;DHT22;218;51.902;9.542;2022-08-18T09:09:00;25.70;1.00
463;DHT22;218;51.902;9.542;2022-08-18T09:11:47;25.80;1.00
463;DHT22;218;51.902;9.542;2022-08-18T09:17:44;26.00;1.00
463;DHT22;218;51.902;9.542;2022-08-18T09:20:31;26.10;1.00
463;DHT22;218;51.902;9.542;2022-08-18T09:23:05;26.20;1.00
463;DHT22;218;51.902;9.542;2022-08-18T09:25:44;26.20;1.00
463;DHT22;218;51.902;9.542;2022-08-18T09:28:15;26.30;1.00
463;DHT22;218;51.902;9.542;2022-08-18T09:30:47;26.30;1.00
463;DHT22;218;51.902;9.542;2022-08-18T09:33:31;26.30;1.00
463;DHT22;218;51.902;9.542;2022-08-18T09:36:11;26.40;1.00
463;DHT22;218;51.902;9.542;2022-08-18T09:38:48;26.50;1.00
463;DHT22;218;51.902;9.542;2022-08-18T09:41:37;26.50;1.00
463;DHT22;218;51.902;9.542;2022-08-18T09:44:12;26.60;1.00
463;DHT22;218;51.902;9.542;2022-08-18T09:46:58;26.60;1.00
463;DHT22;218;51.902;9.542;2022-08-18T09:49:45;26.60;1.00
463;DHT22;218;51.902;9.542;2022-08-18T09:55:41;26.70;1.00
463;DHT22;218;51.902;9.542;2022-08-18T09:58:20;26.70;1.00
463;DHT22;218;51.902;9.542;2022-08-18T10:01:26;26.70;1.00
463;DHT22;218;51.902;9.542;2022-08-18T10:04:16;26.80;1.00
463;DHT22;218;51.902;9.542;2022-08-18T10:06:47;26.80;1.00
463;DHT22;218;51.902;9.542;2022-08-18T10:09:25;26.90;1.00
463;DHT22;218;51.902;9.542;2022-08-18T10:12:24;26.90;1.00
463;DHT22;218;51.902;9.542;2022-08-18T10:17:54;27.00;1.00
463;DHT22;218;51.902;9.542;2022-08-18T10:20:35;27.00;1.00
463;DHT22;218;51.902;9.542;2022-08-18T10:23:07;27.10;1.00
463;DHT22;218;51.902;9.542;2022-08-18T10:25:38;27.10;1.00
463;DHT22;218;51.902;9.542;2022-08-18T10:28:07;27.20;1.00
463;DHT22;218;51.902;9.542;2022-08-18T10:31:00;27.20;1.00
463;DHT22;218;51.902;9.542;2022-08-18T10:33:54;27.30;1.00
463;DHT22;218;51.902;9.542;2022-08-18T10:36:52;27.40;1.00
463;DHT22;218;51.902;9.542;2022-08-18T10:39:26;27.50;1.00
463;DHT22;218;51.902;9.542;2022-08-18T10:42:02;27.50;1.00
463;DHT22;218;51.902;9.542;2022-08-18T10:44:35;27.50;1.00
463;DHT22;218;51.902;9.542;2022-08-18T10:47:03;27.50;1.00
463;DHT22;218;51.902;9.542;2022-08-18T10:49:31;27.60;1.00
463;DHT22;218;51.902;9.542;2022-08-18T10:55:23;27.70;1.00
463;DHT22;218;51.902;9.542;2022-08-18T10:58:02;27.80;1.00
463;DHT22;218;51.902;9.542;2022-08-18T11:00:42;27.90;1.00
463;DHT22;218;51.902;9.542;2022-08-18T11:03:21;27.90;1.00
463;DHT22;218;51.902;9.542;2022-08-18T11:06:00;28.00;1.00
463;DHT22;218;51.902;9.542;2022-08-18T11:08:29;28.10;1.00
463;DHT22;218;51.902;9.542;2022-08-18T11:11:05;28.10;1.00
463;DHT22;218;51.902;9.542;2022-08-18T11:13:44;28.20;1.00
463;DHT22;218;51.902;9.542;2022-08-18T11:16:21;28.20;1.00
463;DHT22;218;51.902;9.542;2022-08-18T11:18:56;28.20;1.00
463;DHT22;218;51.902;9.542;2022-08-18T11:21:32;28.30;1.00
463;DHT22;218;51.902;9.542;2022-08-18T11:24:12;28.30;1.00
463;DHT22;218;51.902;9.542;2022-08-18T11:26:43;28.30;1.00
463;DHT22;218;51.902;9.542;2022-08-18T11:29:29;28.30;1.00
463;DHT22;218;51.902;9.542;2022-08-18T11:32:02;28.40;1.00
463;DHT22;218;51.902;9.542;2022-08-18T11:34:36;28.40;1.00
463;DHT22;218;51.902;9.542;2022-08-18T11:37:07;28.40;1.00
463;DHT22;218;51.902;9.542;2022-08-18T11:39:44;28.40;1.00
463;DHT22;218;51.902;9.542;2022-08-18T11:42:16;28.40;1.00
463;DHT22;218;51.902;9.542;2022-08-18T11:44:44;28.50;1.00
463;DHT22;218;51.902;9.542;2022-08-18T11:47:14;28.50;1.00
463;DHT22;218;51.902;9.542;2022-08-18T11:50:05;28.50;1.00
463;DHT22;218;51.902;9.542;2022-08-18T11:52:46;28.50;1.00
463;DHT22;218;51.902;9.542;2022-08-18T11:55:19;28.60;1.00
463;DHT22;218;51.902;9.542;2022-08-18T11:57:52;28.60;1.00
463;DHT22;218;51.902;9.542;2022-08-18T12:00:52;28.60;1.00
463;DHT22;218;51.902;9.542;2022-08-18T12:03:26;28.60;1.00
463;DHT22;218;51.902;9.542;2022-08-18T12:05:56;28.60;1.00
463;DHT22;218;51.902;9.542;2022-08-18T12:08:30;28.60;1.00
463;DHT22;218;51.902;9.542;2022-08-18T12:11:04;28.70;1.00
463;DHT22;218;51.902;9.542;2022-08-18T12:13:34;28.70;1.00
463;DHT22;218;51.902;9.542;2022-08-18T12:16:09;28.70;1.00
463;DHT22;218;51.902;9.542;2022-08-18T12:18:37;28.70;1.00
463;DHT22;218;51.902;9.542;2022-08-18T12:21:04;28.70;1.00
463;DHT22;218;51.902;9.542;2022-08-18T12:23:39;28.70;1.00
463;DHT22;218;51.902;9.542;2022-08-18T12:26:08;28.70;1.00
463;DHT22;218;51.902;9.542;2022-08-18T12:28:36;28.80;1.00
463;DHT22;218;51.902;9.542;2022-08-18T12:31:05;28.80;1.00
463;DHT22;218;51.902;9.542;2022-08-18T12:33:32;28.80;1.00
463;DHT22;218;51.902;9.542;2022-08-18T12:35:59;28.80;1.00
463;DHT22;218;51.902;9.542;2022-08-18T12:38:26;28.90;1.00
463;DHT22;218;51.902;9.542;2022-08-18T12:40:54;28.90;1.00
463;DHT22;218;51.902;9.542;2022-08-18T12:43:21;29.00;1.00
463;DHT22;218;51.902;9.542;2022-08-18T12:45:50;29.10;1.00
463;DHT22;218;51.902;9.542;2022-08-18T12:48:17;29.20;1.00
463;DHT22;218;51.902;9.542;2022-08-18T12:50:44;29.20;1.00
463;DHT22;218;51.902;9.542;2022-08-18T12:53:11;29.30;1.00
463;DHT22;218;51.902;9.542;2022-08-18T12:55:42;29.40;1.00
463;DHT22;218;51.902;9.542;2022-08-18T12:58:09;29.50;1.00
463;DHT22;218;51.902;9.542;2022-08-18T13:00:36;29.50;1.00
463;DHT22;218;51.902;9.542;2022-08-18T13:03:07;29.60;1.00
463;DHT22;218;51.902;9.542;2022-08-18T13:05:35;29.70;1.00
463;DHT22;218;51.902;9.542;2022-08-18T13:08:05;29.70;1.00
463;DHT22;218;51.902;9.542;2022-08-18T13:10:35;29.70;1.00
463;DHT22;218;51.902;9.542;2022-08-18T13:13:02;29.80;1.00
463;DHT22;218;51.902;9.542;2022-08-18T13:15:30;29.80;1.00
463;DHT22;218;51.902;9.542;2022-08-18T13:17:58;29.80;1.00
463;DHT22;218;51.902;9.542;2022-08-18T13:20:28;29.80;1.00
463;DHT22;218;51.902;9.542;2022-08-18T13:22:56;29.80;1.00
463;DHT22;218;51.902;9.542;2022-08-18T13:25:23;29.70;1.00
463;DHT22;218;51.902;9.542;2022-08-18T13:27:51;29.70;1.00
463;DHT22;218;51.902;9.542;2022-08-18T13:30:20;29.80;1.00
463;DHT22;218;51.902;9.542;2022-08-18T13:32:47;29.70;1.00
463;DHT22;218;51.902;9.542;2022-08-18T13:35:14;29.70;1.00
463;DHT22;218;51.902;9.542;2022-08-18T13:37:44;29.70;1.00
463;DHT22;218;51.902;9.542;2022-08-18T13:40:13;29.70;1.00
463;DHT22;218;51.902;9.542;2022-08-18T13:42:42;29.70;1.00
463;DHT22;218;51.902;9.542;2022-08-18T13:45:11;29.70;1.00
463;DHT22;218;51.902;9.542;2022-08-18T13:47:39;29.70;1.00
463;DHT22;218;51.902;9.542;2022-08-18T13:50:10;29.70;1.00
463;DHT22;218;51.902;9.542;2022-08-18T13:52:38;29.70;1.00
463;DHT22;218;51.902;9.542;2022-08-18T13:55:10;29.70;1.00
463;DHT22;218;51.902;9.542;2022-08-18T13:57:39;29.70;1.00
463;DHT22;218;51.902;9.542;2022-08-18T14:00:08;29.70;1.00
463;DHT22;218;51.902;9.542;2022-08-18T14:02:37;29.70;1.00
463;DHT22;218;51.902;9.542;2022-08-18T14:05:06;29.70;1.00
463;DHT22;218;51.902;9.542;2022-08-18T14:07:34;29.70;1.00
463;DHT22;218;51.902;9.542;2022-08-18T14:10:01;29.70;1.00
463;DHT22;218;51.902;9.542;2022-08-18T14:12:30;29.70;1.00
463;DHT22;218;51.902;9.542;2022-08-18T14:14:59;29.70;1.00
463;DHT22;218;51.902;9.542;2022-08-18T14:17:27;29.70;1.00
463;DHT22;218;51.902;9.542;2022-08-18T14:19:54;29.80;1.00
463;DHT22;218;51.902;9.542;2022-08-18T14:22:38;29.80;1.00
463;DHT22;218;51.902;9.542;2022-08-18T14:25:23;29.80;1.00
463;DHT22;218;51.902;9.542;2022-08-18T14:28:08;29.70;1.00
463;DHT22;218;51.902;9.542;2022-08-18T14:30:36;29.70;1.00
463;DHT22;218;51.902;9.542;2022-08-18T14:33:05;29.80;1.00
463;DHT22;218;51.902;9.542;2022-08-18T14:35:34;29.70;1.00
463;DHT22;218;51.902;9.542;2022-08-18T14:38:02;29.70;1.00
463;DHT22;218;51.902;9.542;2022-08-18T14:40:31;29.70;1.00
463;DHT22;218;51.902;9.542;2022-08-18T14:42:58;29.70;1.00
463;DHT22;218;51.902;9.542;2022-08-18T14:45:27;29.70;1.00
463;DHT22;218;51.902;9.542;2022-08-18T14:47:54;29.70;1.00
463;DHT22;218;51.902;9.542;2022-08-18T14:50:22;29.70;1.00
463;DHT22;218;51.902;9.542;2022-08-18T14:52:49;29.60;1.00
463;DHT22;218;51.902;9.542;2022-08-18T14:55:16;29.60;1.00
463;DHT22;218;51.902;9.542;2022-08-18T14:57:43;29.60;1.00
463;DHT22;218;51.902;9.542;2022-08-18T15:00:14;29.60;1.00
463;DHT22;218;51.902;9.542;2022-08-18T15:02:44;29.60;1.00
463;DHT22;218;51.902;9.542;2022-08-18T15:05:14;29.60;1.00
463;DHT22;218;51.902;9.542;2022-08-18T15:07:41;29.60;1.00
463;DHT22;218;51.902;9.542;2022-08-18T15:10:10;29.50;1.00
463;DHT22;218;51.902;9.542;2022-08-18T15:12:38;29.50;1.00
463;DHT22;218;51.902;9.542;2022-08-18T15:15:07;29.50;1.00
463;DHT22;218;51.902;9.542;2022-08-18T15:17:35;29.50;1.00
463;DHT22;218;51.902;9.542;2022-08-18T15:20:07;29.40;1.00
463;DHT22;218;51.902;9.542;2022-08-18T15:22:38;29.40;1.00
463;DHT22;218;51.902;9.542;2022-08-18T15:25:22;29.40;1.00
463;DHT22;218;51.902;9.542;2022-08-18T15:28:12;29.30;1.00
463;DHT22;218;51.902;9.542;2022-08-18T15:30:42;29.30;1.00
463;DHT22;218;51.902;9.542;2022-08-18T15:33:10;29.30;1.00
463;DHT22;218;51.902;9.542;2022-08-18T15:35:43;29.30;1.00
463;DHT22;218;51.902;9.542;2022-08-18T15:38:16;29.20;1.00
463;DHT22;218;51.902;9.542;2022-08-18T15:40:47;29.20;1.00
463;DHT22;218;51.902;9.542;2022-08-18T15:43:14;29.20;1.00
463;DHT22;218;51.902;9.542;2022-08-18T15:45:43;29.10;1.00
463;DHT22;218;51.902;9.542;2022-08-18T15:48:12;29.10;1.00
463;DHT22;218;51.902;9.542;2022-08-18T15:50:41;29.10;1.00
463;DHT22;218;51.902;9.542;2022-08-18T15:53:10;29.10;1.00
463;DHT22;218;51.902;9.542;2022-08-18T15:55:38;29.10;1.00
463;DHT22;218;51.902;9.542;2022-08-18T15:58:06;29.10;1.00
463;DHT22;218;51.902;9.542;2022-08-18T16:00:33;29.00;1.00
463;DHT22;218;51.902;9.542;2022-08-18T16:03:03;29.10;1.00
463;DHT22;218;51.902;9.542;2022-08-18T16:05:33;29.00;1.00
463;DHT22;218;51.902;9.542;2022-08-18T16:08:04;29.00;1.00
463;DHT22;218;51.902;9.542;2022-08-18T16:10:34;29.00;1.00
463;DHT22;218;51.902;9.542;2022-08-18T16:13:01;29.00;1.00
463;DHT22;218;51.902;9.542;2022-08-18T16:15:34;29.00;1.00
463;DHT22;218;51.902;9.542;2022-08-18T16:18:01;29.00;1.00
463;DHT22;218;51.902;9.542;2022-08-18T16:20:28;29.00;1.00
463;DHT22;218;51.902;9.542;2022-08-18T16:22:58;29.00;1.00
463;DHT22;218;51.902;9.542;2022-08-18T16:25:29;29.00;1.00
463;DHT22;218;51.902;9.542;2022-08-18T16:27:57;28.90;1.00
463;DHT22;218;51.902;9.542;2022-08-18T16:30:25;28.90;1.00
463;DHT22;218;51.902;9.542;2022-08-18T16:32:53;29.00;1.00
463;DHT22;218;51.902;9.542;2022-08-18T16:35:21;28.90;1.00
463;DHT22;218;51.902;9.542;2022-08-18T16:37:48;28.90;1.00
463;DHT22;218;51.902;9.542;2022-08-18T16:40:16;28.90;1.00
463;DHT22;218;51.902;9.542;2022-08-18T16:42:46;28.90;1.00
463;DHT22;218;51.902;9.542;2022-08-18T16:45:13;28.90;1.00
463;DHT22;218;51.902;9.542;2022-08-18T16:47:40;28.90;1.00
463;DHT22;218;51.902;9.542;2022-08-18T16:50:09;28.90;1.00
463;DHT22;218;51.902;9.542;2022-08-18T16:52:37;28.90;1.00
463;DHT22;218;51.902;9.542;2022-08-18T16:55:05;28.90;1.00
463;DHT22;218;51.902;9.542;2022-08-18T16:57:33;28.90;1.00
463;DHT22;218;51.902;9.542;2022-08-18T17:00:20;28.90;1.00
463;DHT22;218;51.902;9.542;2022-08-18T17:03:06;28.80;1.00
463;DHT22;218;51.902;9.542;2022-08-18T17:05:58;28.80;1.00
463;DHT22;218;51.902;9.542;2022-08-18T17:08:25;28.80;1.00
463;DHT22;218;51.902;9.542;2022-08-18T17:10:52;28.80;1.00
463;DHT22;218;51.902;9.542;2022-08-18T17:13:19;28.80;1.00
463;DHT22;218;51.902;9.542;2022-08-18T17:15:48;28.80;1.00
463;DHT22;218;51.902;9.542;2022-08-18T17:18:15;28.80;1.00
463;DHT22;218;51.902;9.542;2022-08-18T17:20:42;28.80;1.00
463;DHT22;218;51.902;9.542;2022-08-18T17:23:09;28.70;1.00
463;DHT22;218;51.902;9.542;2022-08-18T17:25:36;28.70;1.00
463;DHT22;218;51.902;9.542;2022-08-18T17:28:04;28.70;1.00
463;DHT22;218;51.902;9.542;2022-08-18T17:30:33;28.70;1.00
463;DHT22;218;51.902;9.542;2022-08-18T17:33:07;28.70;1.00
463;DHT22;218;51.902;9.542;2022-08-18T17:35:37;28.60;1.00
463;DHT22;218;51.902;9.542;2022-08-18T17:38:10;28.70;1.00